Armstrong, Texas
Current Conditions -  °F | °C
As of 5:55 AM on Friday 28 Nov 2014 (Local Time) from KBKS Reporting Station
Overcast Overcast  
Wind Chill: 48°   Ceiling: 100
Heat Index: 48°   Visibility: 0.5mi
Dew Point: 47°   Wind: 0mph
Humidity: 95%   Direction: NA
Pressure: 30.31"   Gusts: NA
Location:  26.92°N, 97.79°W
Report Text: KBKS 281155Z AUTO 00000KT 1/2SM OVC001 09/08 A3031 RMK AO1 T00880081 10123 20086
Loading
Personal Weather Stations






























Interactive Weather Map New forecast layout! Learn more

10-Day Weather Forecast

Advertisements
Track Severe Weather on mobile